createdAt,value
2018-11-01T00:00:34.657Z,4.10
2018-11-01T00:01:45.086Z,3.87
2018-11-01T00:02:55.530Z,4.40
2018-11-01T00:04:06.121Z,3.72
2018-11-01T00:05:16.655Z,3.87
2018-11-01T00:06:28.343Z,3.25
2018-11-01T00:07:39.195Z,3.15
2018-11-01T00:08:49.859Z,3.70
2018-11-01T00:10:00.553Z,3.55
2018-11-01T00:11:11.182Z,3.67
2018-11-01T00:12:21.301Z,3.20
2018-11-01T00:13:31.235Z,3.70
2018-11-01T00:14:41.553Z,3.70
2018-11-01T00:15:51.950Z,3.65
2018-11-01T00:17:01.567Z,2.72
2018-11-01T00:18:11.921Z,3.70
2018-11-01T00:19:22.367Z,4.03
2018-11-01T00:20:31.922Z,3.33
2018-11-01T00:21:42.759Z,3.40
2018-11-01T00:22:52.813Z,3.55
2018-11-01T00:24:03.198Z,4.08
2018-11-01T00:25:14.285Z,3.70
2018-11-01T00:26:24.558Z,2.77
2018-11-01T00:27:35.049Z,2.60
2018-11-01T00:28:45.317Z,2.80
2018-11-01T00:29:55.628Z,3.52
2018-11-01T00:31:05.925Z,3.42
2018-11-01T00:32:16.428Z,3.02
2018-11-01T00:33:26.477Z,2.62
2018-11-01T00:34:36.664Z,2.60
2018-11-01T00:35:47.089Z,3.60
2018-11-01T00:36:57.308Z,3.17
2018-11-01T00:38:07.598Z,2.92
2018-11-01T00:39:17.810Z,2.70
2018-11-01T00:40:27.757Z,2.50
2018-11-01T00:41:38.094Z,2.80
2018-11-01T00:42:48.428Z,3.25
2018-11-01T00:43:58.601Z,3.00
2018-11-01T00:45:09.667Z,3.55
2018-11-01T00:46:20.098Z,2.95
2018-11-01T00:47:30.279Z,2.92
2018-11-01T00:48:40.447Z,3.10
2018-11-01T00:49:51.330Z,2.92
2018-11-01T00:51:01.911Z,2.67
2018-11-01T00:52:12.700Z,2.87
2018-11-01T00:53:22.825Z,3.00
2018-11-01T00:54:32.630Z,2.85
2018-11-01T00:55:43.109Z,3.27
2018-11-01T00:56:53.782Z,2.83
2018-11-01T00:58:04.123Z,2.80
2018-11-01T00:59:14.559Z,2.75
2018-11-01T01:00:25.230Z,2.67
2018-11-01T01:01:35.759Z,3.20
2018-11-01T01:02:46.137Z,2.62
2018-11-01T01:03:56.791Z,2.60
2018-11-01T01:05:08.394Z,2.35
2018-11-01T01:06:19.109Z,3.08
2018-11-01T01:07:30.187Z,2.60
2018-11-01T01:08:40.528Z,2.30
2018-11-01T01:09:50.898Z,3.10
2018-11-01T01:11:01.247Z,2.52
2018-11-01T01:12:11.601Z,2.80
2018-11-01T01:13:22.039Z,2.70
2018-11-01T01:14:32.996Z,2.25
2018-11-01T01:15:43.681Z,2.20
2018-11-01T01:16:53.910Z,3.00
2018-11-01T01:18:04.360Z,2.83
2018-11-01T01:19:14.917Z,2.58
2018-11-01T01:20:25.068Z,2.65
2018-11-01T01:21:35.207Z,2.87
2018-11-01T01:22:46.355Z,2.40
2018-11-01T01:23:56.932Z,2.20
2018-11-01T01:25:09.532Z,3.00
2018-11-01T01:26:20.390Z,2.60
2018-11-01T01:27:31.051Z,2.65
2018-11-01T01:28:41.508Z,2.22
2018-11-01T01:29:51.775Z,1.90
2018-11-01T01:31:02.454Z,2.05
2018-11-01T01:32:13.147Z,2.60
2018-11-01T01:33:23.269Z,2.30
2018-11-01T01:34:33.718Z,2.60
2018-11-01T01:35:44.419Z,2.10
2018-11-01T01:36:54.821Z,2.47
2018-11-01T01:38:05.416Z,2.77
2018-11-01T01:39:16.151Z,3.15
2018-11-01T01:40:26.432Z,2.27
2018-11-01T01:41:36.582Z,1.87
2018-11-01T01:42:50.047Z,2.47
2018-11-01T01:43:59.713Z,2.05
2018-11-01T01:45:09.395Z,2.08
2018-11-01T01:46:19.260Z,1.87
2018-11-01T01:47:28.798Z,2.35
2018-11-01T01:48:39.602Z,1.70
2018-11-01T01:49:50.260Z,1.92
2018-11-01T01:51:00.678Z,2.25
2018-11-01T01:52:11.532Z,2.15
2018-11-01T01:53:22.123Z,1.85
2018-11-01T01:54:32.788Z,1.85
2018-11-01T01:55:43.506Z,2.20
2018-11-01T01:56:53.987Z,1.92
2018-11-01T01:58:04.445Z,2.15
2018-11-01T01:59:15.160Z,2.55
2018-11-01T02:00:25.542Z,1.95
2018-11-01T02:01:36.185Z,2.22
2018-11-01T02:02:47.647Z,1.95
2018-11-01T02:03:57.965Z,2.30
2018-11-01T02:05:08.395Z,1.72
2018-11-01T02:06:18.290Z,1.70
2018-11-01T02:07:28.793Z,1.70
2018-11-01T02:08:39.084Z,2.33
2018-11-01T02:09:49.953Z,1.98
2018-11-01T02:11:00.841Z,2.55
2018-11-01T02:12:11.184Z,2.10
2018-11-01T02:13:21.528Z,1.62
2018-11-01T02:14:32.090Z,2.22
2018-11-01T02:15:42.505Z,2.00
2018-11-01T02:16:52.893Z,1.75
2018-11-01T02:18:03.609Z,1.77
2018-11-01T02:19:14.170Z,2.10
2018-11-01T02:20:24.724Z,2.20
2018-11-01T02:21:35.680Z,1.80
2018-11-01T02:22:46.279Z,1.50
2018-11-01T02:23:57.039Z,2.20
2018-11-01T02:25:08.375Z,1.40
2018-11-01T02:26:19.051Z,1.52
2018-11-01T02:27:33.950Z,1.85
2018-11-01T02:28:44.330Z,1.90
2018-11-01T02:29:55.145Z,1.90
2018-11-01T02:31:05.932Z,2.22
2018-11-01T02:32:16.502Z,1.90
2018-11-01T02:33:27.479Z,1.87
2018-11-01T02:34:37.983Z,1.87
2018-11-01T02:35:48.594Z,1.90
2018-11-01T02:36:58.424Z,1.90
2018-11-01T02:38:09.073Z,1.55
2018-11-01T02:39:19.435Z,1.95
2018-11-01T02:40:30.108Z,1.75
2018-11-01T02:41:41.084Z,1.45
2018-11-01T02:42:51.166Z,2.00
2018-11-01T02:44:02.009Z,1.70
2018-11-01T02:45:13.418Z,1.95
2018-11-01T02:46:24.003Z,1.92
2018-11-01T02:47:34.769Z,1.55
2018-11-01T02:48:45.173Z,1.27
2018-11-01T02:49:55.641Z,2.15
2018-11-01T02:51:06.018Z,1.72
2018-11-01T02:52:16.273Z,2.00
2018-11-01T02:53:26.590Z,1.92
2018-11-01T02:54:36.933Z,1.92
2018-11-01T02:55:47.607Z,1.82
2018-11-01T02:56:57.845Z,1.80
2018-11-01T02:58:08.510Z,2.02
2018-11-01T02:59:19.451Z,1.85
2018-11-01T03:00:30.108Z,1.50
2018-11-01T03:01:40.572Z,1.95
2018-11-01T03:02:51.014Z,1.55
2018-11-01T03:04:01.461Z,1.45
2018-11-01T03:05:12.553Z,1.57
2018-11-01T03:06:23.210Z,1.77
2018-11-01T03:07:33.678Z,1.70
2018-11-01T03:08:43.997Z,1.90
2018-11-01T03:09:54.294Z,1.85
2018-11-01T03:11:04.779Z,1.70
2018-11-01T03:12:15.454Z,1.60
2018-11-01T03:13:26.033Z,1.60
2018-11-01T03:14:36.653Z,1.50
2018-11-01T03:15:47.162Z,1.65
2018-11-01T03:16:57.468Z,1.62
2018-11-01T03:18:08.509Z,1.40
2018-11-01T03:19:18.867Z,2.22
2018-11-01T03:20:29.640Z,1.55
2018-11-01T03:21:40.222Z,1.22
2018-11-01T03:22:51.029Z,1.50
2018-11-01T03:24:01.722Z,1.62
2018-11-01T03:25:12.204Z,1.67
2018-11-01T03:26:23.178Z,1.77
2018-11-01T03:27:33.776Z,1.22
2018-11-01T03:28:44.426Z,1.45
2018-11-01T03:29:54.992Z,1.10
2018-11-01T03:31:05.533Z,1.85
2018-11-01T03:32:15.726Z,1.32
2018-11-01T03:33:26.150Z,1.37
2018-11-01T03:34:36.485Z,1.90
2018-11-01T03:35:46.833Z,1.60
2018-11-01T03:36:57.097Z,1.92
2018-11-01T03:38:07.769Z,1.70
2018-11-01T03:39:18.195Z,1.70
2018-11-01T03:40:28.335Z,1.50
2018-11-01T03:41:38.058Z,1.55
2018-11-01T03:42:47.888Z,1.50
2018-11-01T03:43:57.483Z,1.85
2018-11-01T03:45:07.731Z,1.70
2018-11-01T03:46:17.545Z,1.70
2018-11-01T03:47:27.178Z,1.77
2018-11-01T03:48:37.804Z,1.55
2018-11-01T03:49:48.882Z,1.80
2018-11-01T03:50:59.452Z,1.50
2018-11-01T03:52:09.744Z,1.62
2018-11-01T03:53:20.029Z,1.75
2018-11-01T03:54:30.374Z,1.42
2018-11-01T03:55:40.435Z,1.52
2018-11-01T03:56:50.346Z,1.52
2018-11-01T03:58:00.254Z,1.98
2018-11-01T03:59:10.887Z,1.50
2018-11-01T04:00:20.594Z,1.40
2018-11-01T04:01:30.722Z,1.67
2018-11-01T04:02:40.682Z,1.75
2018-11-01T04:03:51.059Z,1.50
2018-11-01T04:05:00.960Z,2.00
2018-11-01T04:06:11.398Z,1.82
2018-11-01T04:07:21.998Z,1.85
2018-11-01T04:08:32.203Z,1.70
2018-11-01T04:09:42.985Z,2.27
2018-11-01T04:10:53.506Z,1.85
2018-11-01T04:12:03.666Z,1.72
2018-11-01T04:13:14.027Z,2.40
2018-11-01T04:14:24.090Z,1.92
2018-11-01T04:15:34.207Z,2.02
2018-11-01T04:16:44.455Z,1.82
2018-11-01T04:17:54.793Z,1.70
2018-11-01T04:19:05.453Z,1.80
2018-11-01T04:20:15.876Z,1.77
2018-11-01T04:21:26.159Z,2.00
2018-11-01T04:22:36.183Z,2.33
2018-11-01T04:23:46.437Z,2.05
2018-11-01T04:24:56.484Z,1.87
2018-11-01T04:26:07.180Z,2.40
2018-11-01T04:27:17.758Z,2.05
2018-11-01T04:28:28.030Z,2.52
2018-11-01T04:29:38.397Z,2.02
2018-11-01T04:30:48.775Z,2.87
2018-11-01T04:31:59.075Z,1.98
2018-11-01T04:33:09.802Z,2.37
2018-11-01T04:34:20.000Z,2.75
2018-11-01T04:35:30.152Z,2.42
2018-11-01T04:36:40.604Z,2.55
2018-11-01T04:37:50.434Z,2.60
2018-11-01T04:39:00.780Z,2.60
2018-11-01T04:40:11.549Z,2.58
2018-11-01T04:41:21.988Z,2.50
2018-11-01T04:42:32.342Z,2.47
2018-11-01T04:43:42.626Z,2.90
2018-11-01T04:44:53.091Z,2.83
2018-11-01T04:46:03.816Z,2.17
2018-11-01T04:47:14.382Z,2.55
2018-11-01T04:48:24.917Z,2.25
2018-11-01T04:49:35.466Z,2.47
2018-11-01T04:50:46.133Z,2.47
2018-11-01T04:51:56.633Z,1.95
2018-11-01T04:53:06.729Z,2.12
2018-11-01T04:54:17.276Z,2.47
2018-11-01T04:55:27.928Z,1.90
2018-11-01T04:56:38.255Z,2.85
2018-11-01T04:57:48.829Z,2.55
2018-11-01T04:58:59.103Z,2.20
2018-11-01T05:00:11.767Z,2.00
2018-11-01T05:01:22.432Z,2.55
2018-11-01T05:02:32.800Z,2.40
2018-11-01T05:03:43.805Z,2.75
2018-11-01T05:04:54.039Z,3.42
2018-11-01T05:06:04.700Z,2.50
2018-11-01T05:07:14.966Z,2.45
2018-11-01T05:08:24.968Z,2.52
2018-11-01T05:09:35.409Z,2.90
2018-11-01T05:10:46.027Z,2.60
2018-11-01T05:11:56.158Z,2.05
2018-11-01T05:13:06.653Z,2.40
2018-11-01T05:14:16.893Z,2.65
2018-11-01T05:15:27.376Z,2.55
2018-11-01T05:16:38.078Z,2.52
2018-11-01T05:17:48.061Z,2.67
2018-11-01T05:18:58.410Z,2.47
2018-11-01T05:20:10.267Z,1.80
2018-11-01T05:21:20.826Z,2.20
2018-11-01T05:22:31.367Z,2.10
2018-11-01T05:23:42.342Z,2.65
2018-11-01T05:24:52.703Z,2.10
2018-11-01T05:26:03.265Z,2.40
2018-11-01T05:27:13.698Z,2.05
2018-11-01T05:28:24.266Z,2.62
2018-11-01T05:29:34.671Z,2.00
2018-11-01T05:30:51.988Z,2.00
2018-11-01T05:32:02.693Z,2.12
2018-11-01T05:33:13.222Z,2.05
2018-11-01T05:34:23.983Z,2.10
2018-11-01T05:35:34.639Z,2.65
2018-11-01T05:36:45.280Z,2.17
2018-11-01T05:37:55.382Z,2.40
2018-11-01T05:39:08.950Z,2.05
2018-11-01T05:40:19.323Z,2.30
2018-11-01T05:41:29.803Z,2.20
2018-11-01T05:42:39.518Z,2.00
2018-11-01T05:43:49.214Z,1.60
2018-11-01T05:44:59.027Z,1.92
2018-11-01T05:46:08.705Z,2.65
2018-11-01T05:47:18.364Z,2.00
2018-11-01T05:48:28.290Z,2.00
2018-11-01T05:49:37.997Z,2.37
2018-11-01T05:50:47.962Z,2.33
2018-11-01T05:51:57.571Z,1.90
2018-11-01T05:53:07.018Z,2.10
2018-11-01T05:54:16.898Z,2.42
2018-11-01T05:55:26.572Z,2.65
2018-11-01T05:56:36.463Z,1.50
2018-11-01T05:57:46.417Z,1.90
2018-11-01T05:58:56.013Z,2.30
2018-11-01T06:00:09.387Z,2.00
2018-11-01T06:01:24.324Z,1.95
2018-11-01T06:02:36.670Z,2.10
2018-11-01T06:03:46.366Z,1.87
2018-11-01T06:04:56.195Z,1.15
2018-11-01T06:06:05.894Z,1.80
2018-11-01T06:07:17.162Z,1.90
2018-11-01T06:08:28.680Z,1.65
2018-11-01T06:09:38.573Z,1.95
2018-11-01T06:10:48.298Z,1.80
2018-11-01T06:11:58.333Z,1.98
2018-11-01T06:13:08.299Z,1.35
2018-11-01T06:14:18.518Z,1.50
2018-11-01T06:15:28.628Z,1.90
2018-11-01T06:16:38.421Z,1.92
2018-11-01T06:17:48.379Z,2.17
2018-11-01T06:18:58.073Z,1.82
2018-11-01T06:20:08.935Z,2.05
2018-11-01T06:21:18.512Z,1.75
2018-11-01T06:22:28.086Z,2.30
2018-11-01T06:23:37.907Z,2.22
2018-11-01T06:24:47.416Z,2.08
2018-11-01T06:25:57.423Z,1.92
2018-11-01T06:27:07.252Z,1.77
2018-11-01T06:28:17.080Z,1.90
2018-11-01T06:29:26.969Z,1.47
2018-11-01T06:30:36.706Z,1.85
2018-11-01T06:31:46.581Z,1.72
2018-11-01T06:32:56.305Z,2.22
2018-11-01T06:34:06.262Z,2.20
2018-11-01T06:35:19.172Z,2.02
2018-11-01T06:36:29.273Z,1.60
2018-11-01T06:37:39.183Z,2.30
2018-11-01T06:38:49.102Z,1.90
2018-11-01T06:39:58.756Z,2.30
2018-11-01T06:41:08.574Z,1.85
2018-11-01T06:42:18.243Z,1.92
2018-11-01T06:43:27.981Z,1.85
2018-11-01T06:44:37.885Z,1.90
2018-11-01T06:45:47.614Z,2.05
2018-11-01T06:46:57.160Z,1.82
2018-11-01T06:48:13.749Z,1.70
2018-11-01T06:49:23.542Z,2.10
2018-11-01T06:50:33.519Z,1.42
2018-11-01T06:51:43.107Z,1.30
2018-11-01T06:52:53.097Z,1.30
2018-11-01T06:54:02.946Z,1.90
2018-11-01T06:55:12.906Z,1.47
2018-11-01T06:56:22.431Z,2.10
2018-11-01T06:57:33.028Z,1.57
2018-11-01T06:58:42.818Z,1.75
2018-11-01T06:59:52.683Z,1.60
2018-11-01T07:01:02.505Z,1.70
2018-11-01T07:02:12.357Z,1.50
2018-11-01T07:03:21.769Z,1.25
2018-11-01T07:04:31.912Z,1.45
2018-11-01T07:05:41.528Z,1.02
2018-11-01T07:06:51.730Z,1.25
2018-11-01T07:08:01.442Z,0.95
2018-11-01T07:09:31.148Z,1.40
2018-11-01T07:10:41.210Z,1.32
2018-11-01T07:11:50.981Z,1.25
2018-11-01T07:13:00.536Z,1.12
2018-11-01T07:14:10.649Z,1.07
2018-11-01T07:15:20.337Z,0.93
2018-11-01T07:16:30.380Z,0.85
2018-11-01T07:17:40.613Z,1.00
2018-11-01T07:18:50.206Z,1.17
2018-11-01T07:19:59.933Z,1.30
2018-11-01T07:21:09.973Z,1.40
2018-11-01T07:22:19.821Z,0.70
2018-11-01T07:23:29.514Z,1.10
2018-11-01T07:24:39.125Z,1.00
2018-11-01T07:25:49.067Z,1.20
2018-11-01T07:26:58.571Z,1.32
2018-11-01T07:28:08.418Z,1.30
2018-11-01T07:29:18.437Z,1.20
2018-11-01T07:30:28.366Z,1.50
2018-11-01T07:31:38.257Z,0.95
2018-11-01T07:32:48.299Z,1.00
2018-11-01T07:33:58.062Z,0.90
2018-11-01T07:35:08.385Z,1.10
2018-11-01T07:36:18.027Z,1.30
2018-11-01T07:37:27.761Z,0.90
2018-11-01T07:38:37.446Z,1.20
2018-11-01T07:39:47.448Z,1.17
2018-11-01T07:40:57.274Z,1.17
2018-11-01T07:42:07.121Z,0.80
2018-11-01T07:43:16.862Z,1.40
2018-11-01T07:44:26.488Z,1.10
2018-11-01T07:45:36.335Z,1.00
2018-11-01T07:46:46.044Z,1.25
2018-11-01T07:47:55.924Z,1.72
2018-11-01T07:49:07.058Z,0.90
2018-11-01T07:50:17.265Z,1.10
2018-11-01T07:51:27.220Z,1.40
2018-11-01T07:52:37.537Z,1.65
2018-11-01T07:53:47.802Z,1.67
2018-11-01T07:54:57.887Z,1.02
2018-11-01T07:56:08.131Z,1.10
2018-11-01T07:57:18.129Z,1.00
2018-11-01T07:58:27.859Z,1.37
2018-11-01T07:59:38.601Z,0.90
2018-11-01T08:00:48.921Z,2.75
2018-11-01T08:01:59.478Z,2.72
2018-11-01T08:03:09.820Z,1.20
2018-11-01T08:04:19.955Z,1.10
2018-11-01T08:05:30.191Z,1.30
2018-11-01T08:06:40.339Z,1.27
2018-11-01T08:07:50.420Z,1.12
2018-11-01T08:09:01.043Z,1.17
2018-11-01T08:10:13.661Z,1.12
2018-11-01T08:11:23.885Z,1.25
2018-11-01T08:12:33.759Z,1.45
2018-11-01T08:13:44.108Z,2.00
2018-11-01T08:14:54.626Z,1.98
2018-11-01T08:16:05.218Z,1.55
2018-11-01T08:17:15.746Z,1.65
2018-11-01T08:18:27.363Z,1.10
2018-11-01T08:19:37.949Z,1.77
2018-11-01T08:20:48.274Z,1.30
2018-11-01T08:21:58.715Z,1.45
2018-11-01T08:23:08.445Z,1.85
2018-11-01T08:24:18.165Z,1.50
2018-11-01T08:25:27.720Z,1.35
2018-11-01T08:26:37.638Z,1.82
2018-11-01T08:27:47.341Z,1.30
2018-11-01T08:28:57.370Z,1.60
2018-11-01T08:30:08.797Z,1.70
2018-11-01T08:31:18.443Z,2.50
2018-11-01T08:32:28.165Z,2.00
2018-11-01T08:33:37.665Z,1.72
2018-11-01T08:34:47.558Z,1.50
2018-11-01T08:35:57.140Z,1.67
2018-11-01T08:37:06.950Z,2.00
2018-11-01T08:38:16.873Z,2.15
2018-11-01T08:39:26.955Z,2.05
2018-11-01T08:40:36.899Z,1.67
2018-11-01T08:41:48.133Z,1.95
2018-11-01T08:42:59.973Z,2.02
2018-11-01T08:44:10.984Z,1.92
2018-11-01T08:45:22.001Z,2.50
2018-11-01T08:46:32.907Z,2.65
2018-11-01T08:47:44.772Z,2.25
2018-11-01T08:48:55.452Z,2.05
2018-11-01T08:50:07.380Z,2.02
2018-11-01T08:51:18.648Z,2.30
2018-11-01T08:52:30.232Z,2.65
2018-11-01T08:53:41.673Z,2.85
2018-11-01T08:54:51.114Z,3.50
2018-11-01T08:56:01.088Z,2.70
2018-11-01T08:57:10.746Z,2.33
2018-11-01T08:58:20.809Z,3.20
2018-11-01T08:59:30.888Z,2.85
2018-11-01T09:00:41.003Z,2.77
2018-11-01T09:01:50.716Z,2.65
2018-11-01T09:03:00.500Z,2.95
2018-11-01T09:04:10.247Z,3.02
2018-11-01T09:05:20.151Z,2.62
2018-11-01T09:06:29.788Z,2.85
2018-11-01T09:07:40.017Z,2.62
2018-11-01T09:08:49.843Z,2.20
2018-11-01T09:09:59.430Z,2.65
2018-11-01T09:11:09.166Z,2.05
2018-11-01T09:12:18.790Z,2.52
2018-11-01T09:13:28.596Z,2.52
2018-11-01T09:14:38.382Z,2.67
2018-11-01T09:15:48.094Z,2.85
2018-11-01T09:16:57.762Z,2.37
2018-11-01T09:18:07.694Z,2.52
2018-11-01T09:19:17.706Z,2.40
2018-11-01T09:20:27.669Z,2.58
2018-11-01T09:21:37.328Z,2.60
2018-11-01T09:22:47.080Z,2.55
2018-11-01T09:23:56.708Z,3.02
2018-11-01T09:25:06.673Z,2.58
2018-11-01T09:26:16.227Z,2.40
2018-11-01T09:27:26.234Z,2.45
2018-11-01T09:28:36.067Z,2.62
2018-11-01T09:29:45.765Z,2.55
2018-11-01T09:30:55.607Z,2.33
2018-11-01T09:32:05.614Z,2.65
2018-11-01T09:33:15.310Z,2.90
2018-11-01T09:34:25.180Z,2.98
2018-11-01T09:35:34.842Z,3.25
2018-11-01T09:36:44.465Z,3.20
2018-11-01T09:37:54.286Z,2.80
2018-11-01T09:39:04.768Z,3.52
2018-11-01T09:40:15.792Z,3.17
2018-11-01T09:41:25.348Z,3.65
2018-11-01T09:42:35.377Z,3.05
2018-11-01T09:43:45.079Z,3.00
2018-11-01T09:44:55.038Z,3.05
2018-11-01T09:46:05.077Z,3.15
2018-11-01T09:47:15.120Z,2.87
2018-11-01T09:48:24.367Z,2.95
2018-11-01T09:49:34.290Z,3.60
2018-11-01T09:50:44.073Z,3.00
2018-11-01T09:51:53.979Z,3.25
2018-11-01T09:53:03.660Z,2.80
2018-11-01T09:54:13.486Z,3.50
2018-11-01T09:55:23.231Z,2.83
2018-11-01T09:56:33.032Z,3.58
2018-11-01T09:57:43.090Z,2.72
2018-11-01T09:58:52.966Z,3.05
2018-11-01T10:00:02.939Z,2.72
2018-11-01T10:01:12.894Z,2.90
2018-11-01T10:02:22.941Z,2.98
2018-11-01T10:03:32.895Z,2.92
2018-11-01T10:04:42.982Z,3.80
2018-11-01T10:05:53.117Z,2.40
2018-11-01T10:07:02.728Z,3.75
2018-11-01T10:08:12.466Z,3.77
2018-11-01T10:09:22.452Z,3.35
2018-11-01T10:10:32.200Z,2.72
2018-11-01T10:11:42.117Z,2.40
2018-11-01T10:12:51.844Z,3.27
2018-11-01T10:14:01.782Z,3.00
2018-11-01T10:15:12.467Z,2.70
2018-11-01T10:16:22.322Z,2.62
2018-11-01T10:17:32.366Z,3.10
2018-11-01T10:18:41.838Z,3.10
2018-11-01T10:19:51.632Z,2.75
2018-11-01T10:21:01.523Z,2.58
2018-11-01T10:22:11.341Z,2.98
2018-11-01T10:23:21.146Z,2.37
2018-11-01T10:24:31.103Z,2.65
2018-11-01T10:25:41.099Z,2.75
2018-11-01T10:26:50.589Z,3.40
2018-11-01T10:28:00.320Z,2.80
2018-11-01T10:29:09.926Z,2.98
2018-11-01T10:30:20.823Z,2.50
2018-11-01T10:31:30.635Z,2.83
2018-11-01T10:32:40.667Z,2.65
2018-11-01T10:33:50.633Z,2.30
2018-11-01T10:35:00.267Z,2.40
2018-11-01T10:36:10.349Z,3.30
2018-11-01T10:37:20.106Z,2.92
2018-11-01T10:38:29.765Z,2.85
2018-11-01T10:39:39.562Z,3.30
2018-11-01T10:40:49.329Z,3.00
2018-11-01T10:41:59.181Z,3.02
2018-11-01T10:43:08.962Z,3.27
2018-11-01T10:44:18.898Z,3.10
2018-11-01T10:45:28.651Z,3.20
2018-11-01T10:46:38.572Z,3.70
2018-11-01T10:47:48.425Z,2.75
2018-11-01T10:48:58.564Z,3.30
2018-11-01T10:50:14.310Z,3.77
2018-11-01T10:51:24.066Z,2.80
2018-11-01T10:52:34.249Z,2.83
2018-11-01T10:53:44.156Z,2.65
2018-11-01T10:54:53.858Z,2.65
2018-11-01T10:56:03.795Z,2.95
2018-11-01T10:57:13.958Z,3.50
2018-11-01T10:58:24.085Z,3.15
2018-11-01T10:59:34.318Z,3.12
2018-11-01T11:00:50.016Z,4.08
2018-11-01T11:02:05.107Z,2.85
2018-11-01T11:03:15.278Z,3.25
2018-11-01T11:04:25.669Z,3.15
2018-11-01T11:05:35.733Z,4.10
2018-11-01T11:06:45.776Z,3.92
2018-11-01T11:07:55.907Z,3.75
2018-11-01T11:09:08.294Z,3.40
2018-11-01T11:10:18.932Z,3.30
2018-11-01T11:11:28.998Z,3.30
2018-11-01T11:12:38.882Z,2.72
2018-11-01T11:13:48.951Z,2.67
2018-11-01T11:14:59.067Z,2.58
2018-11-01T11:16:09.468Z,2.55
2018-11-01T11:17:19.688Z,2.67
2018-11-01T11:18:29.734Z,2.95
2018-11-01T11:19:40.333Z,3.08
2018-11-01T11:20:50.847Z,2.58
2018-11-01T11:22:00.915Z,3.60
2018-11-01T11:23:11.444Z,3.72
2018-11-01T11:24:21.315Z,2.83
2018-11-01T11:25:31.445Z,2.90
2018-11-01T11:26:41.368Z,3.67
2018-11-01T11:27:51.496Z,3.62
2018-11-01T11:29:01.568Z,2.77
2018-11-01T11:30:12.287Z,3.22
2018-11-01T11:31:22.414Z,3.40
2018-11-01T11:32:33.313Z,2.47
2018-11-01T11:33:43.533Z,3.10
2018-11-01T11:34:53.875Z,4.10
2018-11-01T11:36:04.042Z,2.92
2018-11-01T11:37:14.170Z,3.10
2018-11-01T11:38:24.289Z,3.22
2018-11-01T11:39:34.025Z,2.83
2018-11-01T11:40:44.324Z,3.15
2018-11-01T11:41:54.299Z,3.10
2018-11-01T11:43:04.090Z,3.42
2018-11-01T11:44:13.677Z,2.80
2018-11-01T11:45:23.593Z,3.30
2018-11-01T11:46:33.196Z,3.37
2018-11-01T11:47:43.298Z,3.10
2018-11-01T11:48:53.207Z,3.55
2018-11-01T11:50:02.986Z,2.77
2018-11-01T11:51:12.769Z,3.25
2018-11-01T11:52:22.616Z,2.83
2018-11-01T11:53:32.277Z,2.95
2018-11-01T11:54:42.070Z,3.60
2018-11-01T11:55:51.865Z,2.45
2018-11-01T11:57:03.255Z,3.47
2018-11-01T11:58:14.949Z,2.67
2018-11-01T11:59:26.255Z,2.70
2018-11-01T12:00:37.298Z,4.25
2018-11-01T12:01:48.287Z,2.85
2018-11-01T12:02:59.461Z,3.20
2018-11-01T12:04:10.839Z,3.30
2018-11-01T12:05:21.724Z,4.17
2018-11-01T12:06:33.039Z,3.00
2018-11-01T12:07:44.505Z,2.45
2018-11-01T12:08:55.935Z,3.95
2018-11-01T12:10:08.410Z,3.67
2018-11-01T12:11:19.264Z,4.00
2018-11-01T12:12:30.365Z,3.37
2018-11-01T12:13:41.526Z,3.72
2018-11-01T12:14:52.644Z,3.17
2018-11-01T12:16:04.135Z,3.83
2018-11-01T12:17:14.896Z,3.20
2018-11-01T12:18:25.757Z,2.98
2018-11-01T12:19:36.347Z,3.25
2018-11-01T12:20:48.200Z,2.87
2018-11-01T12:22:02.561Z,2.67
2018-11-01T12:23:13.571Z,2.70
2018-11-01T12:24:24.732Z,2.35
2018-11-01T12:25:36.128Z,2.60
2018-11-01T12:26:47.154Z,2.60
2018-11-01T12:27:58.489Z,2.95
2018-11-01T12:29:09.736Z,2.65
2018-11-01T12:30:20.613Z,3.05
2018-11-01T12:31:31.690Z,2.77
2018-11-01T12:32:42.872Z,3.20
2018-11-01T12:33:54.280Z,3.17
2018-11-01T12:35:08.280Z,2.92
2018-11-01T12:36:20.928Z,3.00
2018-11-01T12:37:33.179Z,2.92
2018-11-01T12:38:44.794Z,2.02
2018-11-01T12:39:55.855Z,2.55
2018-11-01T12:41:07.170Z,2.77
2018-11-01T12:42:18.066Z,2.17
2018-11-01T12:43:28.999Z,3.02
2018-11-01T12:44:40.127Z,2.70
2018-11-01T12:45:51.117Z,2.45
2018-11-01T12:47:03.289Z,2.55
2018-11-01T12:48:14.364Z,2.85
2018-11-01T12:49:25.699Z,2.72
2018-11-01T12:50:36.774Z,3.37
2018-11-01T12:51:47.934Z,3.05
2018-11-01T12:52:58.944Z,3.80
2018-11-01T12:54:10.323Z,3.25
2018-11-01T12:55:21.515Z,3.20
2018-11-01T12:56:32.900Z,2.90
2018-11-01T12:57:43.577Z,2.85
2018-11-01T12:58:54.864Z,3.25
2018-11-01T13:00:06.702Z,3.27
2018-11-01T13:01:18.034Z,3.12
2018-11-01T13:02:29.468Z,2.72
2018-11-01T13:03:40.515Z,3.77
2018-11-01T13:04:51.693Z,2.67
2018-11-01T13:06:02.920Z,3.12
2018-11-01T13:07:12.656Z,3.27
2018-11-01T13:08:24.042Z,3.20
2018-11-01T13:09:35.428Z,3.00
2018-11-01T13:10:46.846Z,3.42
2018-11-01T13:11:58.703Z,3.30
2018-11-01T13:13:10.228Z,3.27
2018-11-01T13:14:21.356Z,4.37
2018-11-01T13:15:32.921Z,3.85
2018-11-01T13:16:44.478Z,4.25
2018-11-01T13:17:56.100Z,3.45
2018-11-01T13:19:08.113Z,5.05
2018-11-01T13:20:19.186Z,4.67
2018-11-01T13:21:31.122Z,3.55
2018-11-01T13:22:42.693Z,4.50
2018-11-01T13:23:53.915Z,3.17
2018-11-01T13:25:05.109Z,4.65
2018-11-01T13:26:16.562Z,3.47
2018-11-01T13:27:27.836Z,3.35
2018-11-01T13:28:39.152Z,4.55
2018-11-01T13:29:50.609Z,4.80
2018-11-01T13:31:02.012Z,4.17
2018-11-01T13:32:13.593Z,5.03
2018-11-01T13:33:24.937Z,4.42
2018-11-01T13:34:36.086Z,4.45
2018-11-01T13:35:47.466Z,5.17
2018-11-01T13:36:59.309Z,4.67
2018-11-01T13:38:10.437Z,4.78
2018-11-01T13:39:21.430Z,4.25
2018-11-01T13:40:33.198Z,4.80
2018-11-01T13:41:43.826Z,4.65
2018-11-01T13:42:54.780Z,4.08
2018-11-01T13:44:06.035Z,4.20
2018-11-01T13:45:17.295Z,5.05
2018-11-01T13:46:28.950Z,4.35
2018-11-01T13:47:40.391Z,3.70
2018-11-01T13:48:50.205Z,4.10
2018-11-01T13:50:01.790Z,4.42
2018-11-01T13:51:13.149Z,4.62
2018-11-01T13:52:24.183Z,4.75
2018-11-01T13:53:35.137Z,4.10
2018-11-01T13:54:46.740Z,5.08
2018-11-01T13:55:58.468Z,4.20
2018-11-01T13:57:10.245Z,4.87
2018-11-01T13:58:21.510Z,4.70
2018-11-01T13:59:32.553Z,4.00
2018-11-01T14:00:43.454Z,6.45
2018-11-01T14:01:55.884Z,6.37
2018-11-01T14:03:07.328Z,5.53
2018-11-01T14:04:19.059Z,5.30
2018-11-01T14:05:30.344Z,5.03
2018-11-01T14:06:41.108Z,4.62
2018-11-01T14:07:52.484Z,4.35
2018-11-01T14:09:03.593Z,4.47
2018-11-01T14:10:15.757Z,4.28
2018-11-01T14:11:26.813Z,4.03
2018-11-01T14:12:38.200Z,3.45
2018-11-01T14:13:49.596Z,4.67
2018-11-01T14:15:01.220Z,4.33
2018-11-01T14:16:12.169Z,3.45
2018-11-01T14:17:23.445Z,3.40
2018-11-01T14:18:35.098Z,4.20
2018-11-01T14:19:45.852Z,4.20
2018-11-01T14:20:56.459Z,3.95
2018-11-01T14:22:07.704Z,3.95
2018-11-01T14:23:18.707Z,3.60
2018-11-01T14:24:29.893Z,4.22
2018-11-01T14:25:41.196Z,3.70
2018-11-01T14:26:52.243Z,4.47
2018-11-01T14:28:03.403Z,4.28
2018-11-01T14:29:14.501Z,3.87
2018-11-01T14:30:25.820Z,4.28
2018-11-01T14:31:36.969Z,3.75
2018-11-01T14:32:48.023Z,3.77
2018-11-01T14:33:58.845Z,4.67
2018-11-01T14:35:10.642Z,4.45
2018-11-01T14:36:21.623Z,3.50
2018-11-01T14:37:33.173Z,4.00
2018-11-01T14:38:44.203Z,4.08
2018-11-01T14:39:56.060Z,3.65
2018-11-01T14:41:07.509Z,4.30
2018-11-01T14:42:18.520Z,4.40
2018-11-01T14:43:29.799Z,3.60
2018-11-01T14:44:41.122Z,3.67
2018-11-01T14:45:52.093Z,3.58
2018-11-01T14:47:03.277Z,4.72
2018-11-01T14:48:14.593Z,3.85
2018-11-01T14:49:25.598Z,6.12
2018-11-01T14:50:36.814Z,4.30
2018-11-01T14:51:48.608Z,4.42
2018-11-01T14:53:00.263Z,4.20
2018-11-01T14:54:12.033Z,3.45
2018-11-01T14:55:23.700Z,3.30
2018-11-01T14:56:35.615Z,3.55
2018-11-01T14:57:45.989Z,3.45
2018-11-01T14:58:58.177Z,2.65
2018-11-01T15:00:09.199Z,3.20
2018-11-01T15:01:20.515Z,2.70
2018-11-01T15:02:31.292Z,3.55
2018-11-01T15:03:42.812Z,3.40
2018-11-01T15:04:54.307Z,3.67
2018-11-01T15:06:05.783Z,3.80
2018-11-01T15:07:16.496Z,3.67
2018-11-01T15:08:27.123Z,3.90
2018-11-01T15:09:38.352Z,3.77
2018-11-01T15:10:49.643Z,2.65
2018-11-01T15:12:00.444Z,3.42
2018-11-01T15:13:11.725Z,3.20
2018-11-01T15:14:23.052Z,3.55
2018-11-01T15:15:34.266Z,3.55
2018-11-01T15:16:45.418Z,3.80
2018-11-01T15:17:56.601Z,3.25
2018-11-01T15:19:07.331Z,3.90
2018-11-01T15:20:17.554Z,3.70
2018-11-01T15:21:28.002Z,3.75
2018-11-01T15:22:38.363Z,3.58
2018-11-01T15:23:48.727Z,3.87
2018-11-01T15:24:58.645Z,4.05
2018-11-01T15:26:09.115Z,3.17
2018-11-01T15:27:19.147Z,3.60
2018-11-01T15:28:29.286Z,3.90
2018-11-01T15:29:39.125Z,4.00
2018-11-01T15:30:49.544Z,3.90
2018-11-01T15:32:03.124Z,3.55
2018-11-01T15:33:13.224Z,3.70
2018-11-01T15:34:23.567Z,3.60
2018-11-01T15:35:34.047Z,3.37
2018-11-01T15:36:44.479Z,4.08
2018-11-01T15:37:54.609Z,3.60
2018-11-01T15:39:07.238Z,3.42